Time;durP1;ratioP1;P1;durP2;ratioP2;P2;SDS_P1;SDS_P2;PMS_P1;PMS_P2;Temp;Humidity;BMP_temperature;BMP_pressure;BME280_temperature;BME280_humidity;BME280_pressure;Samples;Min_cycle;Max_cycle;Signal;HPM_P1;HPM_P2
2021/10/17 00:01:40;;;;;;;15.80;10.27;;;11.10;5.30;;;;;;5107159;28;20172;-88
2021/10/17 00:04:05;;;;;;;15.07;10.07;;;11.10;8.20;;;;;;5072397;28;20195;-84
2021/10/17 00:06:31;;;;;;;13.30;10.23;;;11.10;10.20;;;;;;5081478;28;20548;-88
2021/10/17 00:08:58;;;;;;;18.93;9.80;;;10.90;12.50;;;;;;5099022;28;20172;-91
2021/10/17 00:11:24;;;;;;;16.37;9.73;;;10.90;13.70;;;;;;5095300;28;20659;-91
2021/10/17 00:13:51;;;;;;;15.23;10.00;;;10.90;15.10;;;;;;5094483;28;20209;-91
2021/10/17 00:16:17;;;;;;;17.60;10.43;;;11.00;15.10;;;;;;5095419;28;20655;-91
2021/10/17 00:18:44;;;;;;;17.17;10.50;;;11.20;13.70;;;;;;5094302;28;20160;-89
2021/10/17 00:21:09;;;;;;;20.37;10.50;;;11.30;11.70;;;;;;5098122;28;20171;-89
2021/10/17 00:23:35;;;;;;;15.07;9.53;;;11.30;9.70;;;;;;5098043;28;20168;-92
2021/10/17 00:26:01;;;;;;;18.63;10.47;;;11.20;10.20;;;;;;5088254;28;20214;-90
2021/10/17 00:28:28;;;;;;;16.37;10.27;;;11.40;10.00;;;;;;5100851;28;20164;-88
2021/10/17 00:30:54;;;;;;;13.40;9.50;;;11.30;9.30;;;;;;5087631;28;20248;-92
2021/10/17 00:33:20;;;;;;;17.83;11.27;;;11.40;4.30;;;;;;5100414;28;20164;-91
2021/10/17 00:35:45;;;;;;;18.47;10.53;;;11.40;1.10;;;;;;5080816;28;20175;-92
2021/10/17 00:38:11;;;;;;;18.77;10.40;;;11.60;1.00;;;;;;5082073;28;20171;-91
2021/10/17 00:40:37;;;;;;;18.00;10.93;;;11.40;1.50;;;;;;5100817;28;20167;-91
2021/10/17 00:43:04;;;;;;;20.30;11.53;;;11.50;2.40;;;;;;5100201;28;20171;-91
2021/10/17 00:45:31;;;;;;;21.37;10.57;;;11.70;1.00;;;;;;5102604;28;20172;-90
2021/10/17 00:47:59;;;;;;;15.90;10.83;;;11.50;1.00;;;;;;5100717;28;20244;-91
2021/10/17 00:50:26;;;;;;;18.00;11.00;;;11.40;1.00;;;;;;5099235;28;20195;-91
2021/10/17 00:52:52;;;;;;;19.20;16.07;;;11.30;1.00;;;;;;5099757;28;20182;-90
2021/10/17 00:55:20;;;;;;;26.60;15.63;;;11.10;7.00;;;;;;5098794;28;20605;-91
2021/10/17 00:57:46;;;;;;;16.10;9.93;;;11.20;9.50;;;;;;5115990;28;20163;-91
2021/10/17 01:00:14;;;;;;;21.73;10.37;;;11.30;7.90;;;;;;5117415;28;20168;-92
2021/10/17 01:02:41;;;;;;;20.03;10.60;;;11.40;1.00;;;;;;5116439;28;20171;-91
2021/10/17 01:05:16;;;;;;;17.27;10.33;;;11.50;1.00;;;;;;5118119;28;20227;-90
2021/10/17 01:07:44;;;;;;;14.70;9.40;;;11.50;1.00;;;;;;5090014;28;20224;-90
2021/10/17 01:10:13;;;;;;;13.97;9.17;;;11.50;1.00;;;;;;5099192;28;20168;-92
2021/10/17 01:12:39;;;;;;;17.30;8.97;;;11.50;1.00;;;;;;5097916;28;20222;-92
2021/10/17 01:15:06;;;;;;;17.03;9.80;;;11.60;1.00;;;;;;5079413;28;20164;-90
2021/10/17 01:17:41;;;;;;;18.23;9.13;;;11.60;1.00;;;;;;5097458;28;20620;-92
2021/10/17 01:20:08;;;;;;;16.17;10.00;;;11.60;1.00;;;;;;5083200;28;20171;-88
2021/10/17 01:22:35;;;;;;;13.90;8.27;;;11.70;1.00;;;;;;5101379;28;20190;-91
2021/10/17 01:25:04;;;;;;;17.20;8.70;;;11.70;1.00;;;;;;5086764;28;20227;-89
2021/10/17 01:27:31;;;;;;;18.57;8.37;;;11.80;1.00;;;;;;5098091;28;20175;-91
2021/10/17 01:29:57;;;;;;;16.23;8.57;;;11.70;1.00;;;;;;5097134;28;20160;-92
2021/10/17 01:32:23;;;;;;;13.87;7.90;;;11.70;1.00;;;;;;5096211;28;20690;-88
2021/10/17 01:34:49;;;;;;;15.67;8.70;;;11.80;1.00;;;;;;5096471;28;20167;-88
2021/10/17 01:37:15;;;;;;;17.33;9.00;;;11.70;1.00;;;;;;5096445;28;20172;-91
2021/10/17 01:39:41;;;;;;;14.87;8.47;;;11.70;1.00;;;;;;5097461;28;20168;-94
2021/10/17 01:42:07;;;;;;;16.40;9.00;;;11.80;1.00;;;;;;5097260;28;20194;-90
2021/10/17 01:44:34;;;;;;;12.23;8.53;;;11.90;1.00;;;;;;5078922;28;20176;-92
2021/10/17 01:47:01;;;;;;;17.03;8.03;;;11.90;1.00;;;;;;5113777;28;20194;-90
2021/10/17 01:49:27;;;;;;;15.20;9.20;;;11.80;1.00;;;;;;5117898;28;20180;-90
2021/10/17 01:51:52;;;;;;;18.17;9.27;;;11.70;1.00;;;;;;5114413;28;20211;-89
2021/10/17 01:54:20;;;;;;;16.13;9.67;;;11.70;1.00;;;;;;5099447;28;20158;-90
2021/10/17 01:56:47;;;;;;;17.10;9.07;;;11.90;1.00;;;;;;5097450;28;20168;-90
2021/10/17 01:59:14;;;;;;;21.37;9.20;;;11.90;1.00;;;;;;5078930;28;20175;-91
2021/10/17 02:01:40;;;;;;;16.40;9.23;;;11.80;1.00;;;;;;5078359;28;20184;-91
2021/10/17 02:04:05;;;;;;;16.47;9.00;;;11.70;1.00;;;;;;5095771;28;20649;-89
2021/10/17 02:06:32;;;;;;;15.97;8.90;;;11.70;1.00;;;;;;5100178;28;20205;-90
2021/10/17 02:09:01;;;;;;;16.27;8.93;;;11.80;1.00;;;;;;5117766;28;20175;-92
2021/10/17 02:11:27;;;;;;;16.03;8.77;;;11.70;1.00;;;;;;5094264;28;20226;-90
2021/10/17 02:13:59;;;;;;;15.67;9.10;;;11.70;1.00;;;;;;5111471;28;20171;-91
2021/10/17 02:16:31;;;;;;;13.97;8.77;;;11.40;1.00;;;;;;5097048;28;20202;-91
2021/10/17 02:18:57;;;;;;;12.70;8.33;;;11.30;1.00;;;;;;5096511;28;20163;-92
2021/10/17 02:21:23;;;;;;;14.40;8.37;;;11.30;1.00;;;;;;5078054;28;20205;-92
2021/10/17 02:23:49;;;;;;;17.93;8.10;;;11.30;1.00;;;;;;5096301;28;20152;-92
2021/10/17 02:26:15;;;;;;;16.53;8.40;;;11.30;1.00;;;;;;5077427;28;20228;-90
2021/10/17 02:28:40;;;;;;;16.00;8.60;;;11.50;1.00;;;;;;5096263;28;20182;-92
2021/10/17 02:31:06;;;;;;;12.97;7.53;;;11.30;1.00;;;;;;5077683;28;20218;-91
2021/10/17 02:33:34;;;;;;;15.50;7.80;;;11.20;1.00;;;;;;5095455;28;20167;-93
2021/10/17 02:36:00;;;;;;;14.53;8.13;;;11.30;1.00;;;;;;5097163;28;20170;-90
2021/10/17 02:38:26;;;;;;;16.47;7.83;;;11.30;1.00;;;;;;5096421;28;20247;-92
2021/10/17 02:40:52;;;;;;;17.10;8.87;;;11.30;1.00;;;;;;5097211;28;20205;-91
2021/10/17 02:43:18;;;;;;;15.77;8.23;;;11.30;1.00;;;;;;5081811;28;20179;-91
2021/10/17 02:45:44;;;;;;;15.60;8.20;;;11.20;1.00;;;;;;5099541;28;20206;-92
2021/10/17 02:48:10;;;;;;;16.63;8.17;;;11.20;1.00;;;;;;5077768;28;20184;-91
2021/10/17 02:50:36;;;;;;;13.77;7.70;;;11.20;1.00;;;;;;5095614;28;20187;-91
2021/10/17 02:53:01;;;;;;;13.77;7.77;;;11.30;1.00;;;;;;5095446;28;20179;-92
2021/10/17 02:55:27;;;;;;;15.37;8.47;;;11.40;1.00;;;;;;5097419;28;20255;-89
2021/10/17 02:57:53;;;;;;;17.30;8.43;;;11.70;1.00;;;;;;5095278;28;20193;-92
2021/10/17 03:00:19;;;;;;;13.83;8.00;;;11.50;1.00;;;;;;5096031;28;20252;-92
2021/10/17 03:02:45;;;;;;;17.17;8.17;;;11.30;1.00;;;;;;5098711;28;20156;-90
2021/10/17 03:05:11;;;;;;;14.30;8.03;;;11.40;1.00;;;;;;5080338;28;20175;-92
2021/10/17 03:07:37;;;;;;;14.87;8.47;;;11.50;1.00;;;;;;5096914;28;20172;-92
2021/10/17 03:10:04;;;;;;;12.07;8.20;;;11.60;1.00;;;;;;5094876;28;20190;-91
2021/10/17 03:12:29;;;;;;;16.40;8.70;;;11.60;1.00;;;;;;5095735;28;20268;-91
2021/10/17 03:14:55;;;;;;;14.10;7.67;;;11.70;1.00;;;;;;5095449;28;20635;-92
2021/10/17 03:17:24;;;;;;;16.80;8.83;;;11.70;1.00;;;;;;5095725;28;20197;-90
2021/10/17 03:19:50;;;;;;;13.53;8.23;;;11.70;1.00;;;;;;5096302;28;20172;-90
2021/10/17 03:22:15;;;;;;;14.20;8.17;;;11.50;1.00;;;;;;5078774;28;20198;-91
2021/10/17 03:24:41;;;;;;;15.13;8.03;;;11.30;1.00;;;;;;5094900;28;20172;-91
2021/10/17 03:27:07;;;;;;;16.57;8.40;;;11.50;1.00;;;;;;5095799;28;20172;-89
2021/10/17 03:29:33;;;;;;;16.47;8.37;;;11.50;1.00;;;;;;5115426;28;20164;-87
2021/10/17 03:31:58;;;;;;;20.10;8.87;;;11.50;1.00;;;;;;5117318;28;20191;-90
2021/10/17 03:34:24;;;;;;;14.80;8.03;;;11.50;1.00;;;;;;5101418;28;20171;-89
2021/10/17 03:36:50;;;;;;;15.10;7.77;;;11.40;1.00;;;;;;5101147;28;20171;-90
2021/10/17 03:39:22;;;;;;;13.63;7.80;;;11.40;1.00;;;;;;5113279;28;20168;-92
2021/10/17 03:41:48;;;;;;;16.80;7.73;;;11.70;1.00;;;;;;5105509;28;20577;-91
2021/10/17 03:44:14;;;;;;;14.17;8.77;;;11.40;1.00;;;;;;5095511;28;20221;-90
2021/10/17 03:46:39;;;;;;;16.87;8.03;;;11.60;1.00;;;;;;5095960;28;20202;-91
2021/10/17 03:49:11;;;;;;;13.27;7.47;;;11.70;1.00;;;;;;5096014;28;20171;-91
2021/10/17 03:51:37;;;;;;;15.70;7.87;;;11.80;1.00;;;;;;5081677;28;20210;-91
2021/10/17 03:54:02;;;;;;;17.97;8.17;;;11.80;1.00;;;;;;5103103;28;20179;-90
2021/10/17 03:56:28;;;;;;;17.00;8.43;;;11.70;1.00;;;;;;5105387;28;20171;-91
2021/10/17 03:58:54;;;;;;;16.10;7.60;;;11.70;1.00;;;;;;5100144;28;20203;-90
2021/10/17 04:01:19;;;;;;;16.97;7.67;;;11.80;1.00;;;;;;5100419;28;20654;-92
2021/10/17 04:03:46;;;;;;;16.23;7.90;;;11.90;1.00;;;;;;5104582;28;20171;-92
2021/10/17 04:06:11;;;;;;;15.13;7.57;;;11.90;1.00;;;;;;5099463;28;20171;-92
2021/10/17 04:08:39;;;;;;;16.93;8.17;;;11.90;1.00;;;;;;5099067;28;20218;-93
2021/10/17 04:11:05;;;;;;;16.13;7.43;;;11.80;1.00;;;;;;5098837;28;20659;-91
2021/10/17 04:13:30;;;;;;;12.87;7.87;;;11.90;1.00;;;;;;5098737;28;20179;-92
2021/10/17 04:15:56;;;;;;;14.50;7.40;;;12.00;1.00;;;;;;5097960;28;20270;-92
2021/10/17 04:18:22;;;;;;;14.90;7.83;;;11.80;1.00;;;;;;5080155;28;20172;-91
2021/10/17 04:20:47;;;;;;;17.87;8.10;;;12.00;1.00;;;;;;5098459;28;20209;-92
2021/10/17 04:23:13;;;;;;;19.67;7.67;;;12.00;1.00;;;;;;5082105;28;20183;-89
2021/10/17 04:25:39;;;;;;;16.70;7.60;;;11.90;1.00;;;;;;5099669;28;20198;-91
2021/10/17 04:28:04;;;;;;;17.57;8.47;;;11.80;1.00;;;;;;5082322;28;20176;-90
2021/10/17 04:30:30;;;;;;;15.60;7.77;;;11.80;1.00;;;;;;5099537;28;20168;-91
2021/10/17 04:32:56;;;;;;;14.00;7.03;;;11.90;1.00;;;;;;5113426;28;20235;-83
2021/10/17 04:35:23;;;;;;;16.50;7.80;;;12.00;1.00;;;;;;5111263;28;20195;-91
2021/10/17 04:37:48;;;;;;;14.30;8.07;;;12.00;1.00;;;;;;5108719;28;20179;-89
2021/10/17 04:40:21;;;;;;;14.83;7.73;;;12.10;1.00;;;;;;5100161;28;20160;-91
2021/10/17 04:42:53;;;;;;;16.93;8.07;;;12.00;1.00;;;;;;5098365;28;20163;-90
2021/10/17 04:45:18;;;;;;;13.60;7.63;;;12.00;1.00;;;;;;5098111;28;20650;-91
2021/10/17 04:47:44;;;;;;;17.93;8.30;;;11.80;1.00;;;;;;5097965;28;20188;-89
2021/10/17 04:50:10;;;;;;;14.90;7.53;;;11.90;1.00;;;;;;5107795;28;20166;-87
2021/10/17 04:52:36;;;;;;;12.97;6.90;;;11.80;1.00;;;;;;5121268;28;20229;-85
2021/10/17 04:55:05;;;;;;;13.17;7.40;;;11.60;1.00;;;;;;5112818;28;20175;-90
2021/10/17 04:57:35;;;;;;;16.40;7.80;;;11.60;1.00;;;;;;5105596;28;20201;-91
2021/10/17 05:00:04;;;;;;;16.63;8.53;;;11.70;1.00;;;;;;5098620;28;20183;-91
2021/10/17 05:02:30;;;;;;;15.00;7.40;;;11.70;1.00;;;;;;5080183;28;20620;-91
2021/10/17 05:04:57;;;;;;;14.13;7.17;;;11.70;1.00;;;;;;5101660;28;20186;-91
2021/10/17 05:07:23;;;;;;;18.20;8.27;;;11.70;1.00;;;;;;5096759;28;20172;-92
2021/10/17 05:09:48;;;;;;;19.37;8.37;;;11.70;1.00;;;;;;5097658;28;20250;-91
2021/10/17 05:12:14;;;;;;;13.53;7.67;;;12.00;1.00;;;;;;5079814;28;20273;-89
2021/10/17 05:14:40;;;;;;;14.20;7.50;;;11.80;1.00;;;;;;5099641;28;20174;-88
2021/10/17 05:17:07;;;;;;;13.77;7.37;;;11.70;1.00;;;;;;5102684;28;20168;-87
2021/10/17 05:19:33;;;;;;;14.63;7.57;;;11.60;1.00;;;;;;5102264;28;20183;-91
2021/10/17 05:21:59;;;;;;;12.17;6.50;;;11.40;1.00;;;;;;5098488;28;20176;-91
2021/10/17 05:24:24;;;;;;;15.80;7.33;;;11.30;1.00;;;;;;5079360;28;20182;-91
2021/10/17 05:26:50;;;;;;;15.20;6.80;;;11.30;1.00;;;;;;5107666;28;20185;-88
2021/10/17 05:29:16;;;;;;;13.97;7.20;;;11.40;1.00;;;;;;5099959;28;20195;-91
2021/10/17 05:31:42;;;;;;;15.93;6.90;;;11.20;1.00;;;;;;5113855;28;20184;-90
2021/10/17 05:34:07;;;;;;;12.67;7.10;;;11.40;1.00;;;;;;5118698;28;20168;-90
2021/10/17 05:36:34;;;;;;;14.27;7.10;;;11.40;1.00;;;;;;5115669;28;20191;-92
2021/10/17 05:39:01;;;;;;;13.63;6.67;;;11.20;1.00;;;;;;5097396;28;20181;-91
2021/10/17 05:41:27;;;;;;;12.57;6.77;;;11.40;1.00;;;;;;5097665;28;20176;-91
2021/10/17 05:43:52;;;;;;;17.30;7.47;;;11.60;1.00;;;;;;5097639;28;20159;-91
2021/10/17 05:46:18;;;;;;;13.20;6.80;;;11.50;1.00;;;;;;5096952;28;20187;-91
2021/10/17 05:48:44;;;;;;;12.57;6.50;;;11.40;1.00;;;;;;5097512;28;20228;-92
2021/10/17 05:51:10;;;;;;;14.97;7.07;;;11.50;1.00;;;;;;5079852;28;20206;-91
2021/10/17 05:53:36;;;;;;;16.10;7.47;;;11.60;1.00;;;;;;5098337;28;20180;-89
2021/10/17 05:56:01;;;;;;;16.10;6.93;;;11.20;1.00;;;;;;5079676;28;20168;-91
2021/10/17 05:58:27;;;;;;;16.63;7.57;;;11.10;2.60;;;;;;5100745;28;20639;-91
2021/10/17 06:00:53;;;;;;;17.47;7.60;;;11.10;2.20;;;;;;5099195;28;20244;-84
2021/10/17 06:03:19;;;;;;;15.53;8.03;;;11.00;3.40;;;;;;5116409;28;20167;-84
2021/10/17 06:05:46;;;;;;;17.60;8.07;;;11.10;8.30;;;;;;5097315;28;20167;-82
2021/10/17 06:08:23;;;;;;;18.63;8.87;;;11.10;9.80;;;;;;5112481;28;20159;-83
2021/10/17 06:10:50;;;;;;;21.83;9.70;;;10.90;12.80;;;;;;5094005;28;20198;-87
2021/10/17 06:13:15;;;;;;;19.47;10.67;;;10.90;15.00;;;;;;5097698;28;20207;-89
2021/10/17 06:15:41;;;;;;;20.77;10.80;;;10.90;15.90;;;;;;5078352;28;20179;-93
2021/10/17 06:18:07;;;;;;;21.83;10.80;;;10.80;17.70;;;;;;5095152;28;20176;-89
2021/10/17 06:20:33;;;;;;;19.33;10.47;;;10.80;19.00;;;;;;5096214;28;20681;-91
2021/10/17 06:22:59;;;;;;;16.33;9.23;;;10.80;18.20;;;;;;5095990;28;20180;-90
2021/10/17 06:25:25;;;;;;;19.67;9.30;;;10.90;19.40;;;;;;5095852;28;20175;-90
2021/10/17 06:27:51;;;;;;;22.83;10.63;;;11.10;16.00;;;;;;5096896;28;20156;-89
2021/10/17 06:30:17;;;;;;;20.30;10.20;;;11.10;15.10;;;;;;5102577;28;20179;-88
2021/10/17 06:32:43;;;;;;;21.17;10.77;;;11.20;14.30;;;;;;5096001;28;20214;-91
2021/10/17 06:35:09;;;;;;;20.60;10.63;;;11.10;15.70;;;;;;5077817;28;20221;-91
2021/10/17 06:37:35;;;;;;;18.53;10.77;;;11.20;15.60;;;;;;5094959;28;20201;-91
2021/10/17 06:40:00;;;;;;;18.43;10.53;;;11.10;16.10;;;;;;5096135;28;20172;-91
2021/10/17 06:42:26;;;;;;;18.70;10.87;;;11.00;19.00;;;;;;5096374;28;20179;-90
2021/10/17 06:44:52;;;;;;;25.67;12.57;;;11.20;19.70;;;;;;5097663;28;20187;-85
2021/10/17 06:47:18;;;;;;;17.30;10.93;;;11.30;17.30;;;;;;5107433;28;20191;-90
2021/10/17 06:49:43;;;;;;;22.33;11.80;;;11.60;15.30;;;;;;5095847;28;20171;-92
2021/10/17 06:52:09;;;;;;;19.20;11.80;;;11.30;13.50;;;;;;5096572;28;20219;-92
2021/10/17 06:54:37;;;;;;;21.47;11.17;;;11.30;11.50;;;;;;5080317;28;20257;-90
2021/10/17 06:57:02;;;;;;;25.27;11.97;;;11.30;11.40;;;;;;5096812;28;20176;-92
2021/10/17 06:59:28;;;;;;;19.40;11.17;;;11.50;6.40;;;;;;5096778;28;20235;-91
2021/10/17 07:01:54;;;;;;;22.53;12.20;;;11.50;4.40;;;;;;5097015;28;20178;-91
2021/10/17 07:04:20;;;;;;;19.57;10.77;;;11.50;3.70;;;;;;5092137;28;20175;-90
2021/10/17 07:06:46;;;;;;;23.03;11.83;;;11.40;6.80;;;;;;5098619;28;20179;-83
2021/10/17 07:09:11;;;;;;;21.90;10.90;;;11.10;11.40;;;;;;5109546;28;20155;-92
2021/10/17 07:11:38;;;;;;;21.70;11.40;;;11.00;17.10;;;;;;5104803;28;20278;-89
2021/10/17 07:14:10;;;;;;;19.50;11.87;;;11.10;17.70;;;;;;5118371;28;20248;-85
2021/10/17 07:16:39;;;;;;;22.47;11.40;;;11.20;17.20;;;;;;5117638;28;20183;-90
2021/10/17 07:19:14;;;;;;;22.50;12.17;;;11.20;16.80;;;;;;5089316;28;20611;-92
2021/10/17 07:21:39;;;;;;;23.63;11.93;;;11.20;16.00;;;;;;5100454;28;20623;-91
2021/10/17 07:24:05;;;;;;;21.17;11.70;;;11.40;16.60;;;;;;5078681;28;20170;-91
2021/10/17 07:26:39;;;;;;;20.47;11.53;;;11.30;16.60;;;;;;5096581;28;20620;-92
2021/10/17 07:29:05;;;;;;;21.37;11.10;;;11.40;14.80;;;;;;5095300;28;20167;-90
2021/10/17 07:31:31;;;;;;;21.47;11.20;;;11.60;10.80;;;;;;5104424;28;20199;-81
2021/10/17 07:33:58;;;;;;;21.03;11.63;;;11.80;5.80;;;;;;5099661;28;20248;-82
2021/10/17 07:36:23;;;;;;;22.07;10.80;;;11.80;2.00;;;;;;5106301;28;20178;-89
2021/10/17 07:38:50;;;;;;;17.33;10.43;;;11.80;2.40;;;;;;5098589;28;20167;-86
2021/10/17 07:41:16;;;;;;;19.77;10.07;;;11.80;1.80;;;;;;5096662;28;20221;-87
2021/10/17 07:43:41;;;;;;;18.07;9.63;;;11.80;1.00;;;;;;5099850;28;20163;-85
2021/10/17 07:46:08;;;;;;;18.27;10.97;;;11.90;1.00;;;;;;5095485;28;20590;-88
2021/10/17 07:48:36;;;;;;;17.43;10.47;;;12.00;1.00;;;;;;5095580;28;20167;-91
2021/10/17 07:51:03;;;;;;;18.77;9.90;;;11.90;1.00;;;;;;5094555;28;20263;-84
2021/10/17 07:53:29;;;;;;;21.23;10.43;;;11.80;1.00;;;;;;5094210;28;20200;-89
2021/10/17 07:55:55;;;;;;;17.37;9.23;;;12.00;1.00;;;;;;5094670;28;20171;-86
2021/10/17 07:58:21;;;;;;;18.27;9.47;;;12.10;1.00;;;;;;5095442;28;20173;-85
2021/10/17 08:00:47;;;;;;;17.57;10.33;;;12.20;1.00;;;;;;5096998;28;20222;-90
2021/10/17 08:03:12;;;;;;;15.73;9.47;;;12.10;1.00;;;;;;5077459;28;20194;-88
2021/10/17 08:05:38;;;;;;;18.70;9.70;;;12.10;1.00;;;;;;5095607;28;20171;-85
2021/10/17 08:08:04;;;;;;;16.30;9.23;;;12.30;1.00;;;;;;5096701;28;20164;-87
2021/10/17 08:10:31;;;;;;;18.43;10.23;;;12.20;1.00;;;;;;5083913;28;20172;-83
2021/10/17 08:12:56;;;;;;;18.97;10.03;;;12.30;1.00;;;;;;5083162;28;20211;-87
2021/10/17 08:15:24;;;;;;;16.33;9.90;;;12.40;1.00;;;;;;5083845;28;20178;-88
2021/10/17 08:17:56;;;;;;;18.63;9.93;;;12.70;1.00;;;;;;5103121;28;20228;-90
2021/10/17 08:20:22;;;;;;;18.90;10.77;;;13.20;1.00;;;;;;5112815;28;20148;-89
2021/10/17 08:22:48;;;;;;;19.70;9.27;;;13.20;1.00;;;;;;5091495;28;20520;-90
2021/10/17 08:25:14;;;;;;;18.43;10.33;;;13.30;1.00;;;;;;5108065;28;20187;-90
2021/10/17 08:27:41;;;;;;;20.43;10.83;;;13.30;1.00;;;;;;5110097;28;20156;-81
2021/10/17 08:30:10;;;;;;;21.27;10.33;;;13.40;1.00;;;;;;5095371;28;20184;-84
2021/10/17 08:32:36;;;;;;;18.50;11.20;;;13.50;1.00;;;;;;5108302;28;20679;-85
2021/10/17 08:35:02;;;;;;;19.80;11.37;;;13.50;1.00;;;;;;5099535;28;20156;-88
2021/10/17 08:37:30;;;;;;;19.77;11.23;;;13.60;1.00;;;;;;5082207;28;20168;-90
2021/10/17 08:39:57;;;;;;;23.80;11.93;;;13.60;1.00;;;;;;5095998;28;20168;-95
2021/10/17 08:42:24;;;;;;;18.47;10.53;;;13.50;1.00;;;;;;5098364;28;20158;-92
2021/10/17 08:44:55;;;;;;;23.23;12.50;;;13.50;1.00;;;;;;5098748;28;20199;-91
2021/10/17 08:47:27;;;;;;;22.63;11.67;;;13.20;1.00;;;;;;5099347;28;20639;-94
2021/10/17 08:49:59;;;;;;;19.40;11.60;;;13.30;1.00;;;;;;5099705;28;20194;-91
2021/10/17 08:52:25;;;;;;;20.00;11.37;;;13.20;1.00;;;;;;5098852;28;20239;-92
2021/10/17 08:54:55;;;;;;;22.47;11.80;;;13.30;1.00;;;;;;5100179;28;20163;-94
2021/10/17 08:57:21;;;;;;;19.83;12.17;;;13.40;1.00;;;;;;5101596;28;20229;-92
2021/10/17 08:59:52;;;;;;;21.70;11.83;;;13.50;1.00;;;;;;5102205;28;20632;-93
2021/10/17 09:02:25;;;;;;;20.70;11.33;;;13.50;1.00;;;;;;5106435;28;20162;-92
2021/10/17 09:05:06;;;;;;;17.90;10.73;;;13.50;1.00;;;;;;5108438;28;20167;-92
2021/10/17 09:07:32;;;;;;;21.70;11.43;;;13.60;1.00;;;;;;5090828;28;20215;-91
2021/10/17 09:10:26;;;;;;;20.17;11.17;;;13.80;1.00;;;;;;5110062;28;20181;-83
2021/10/17 09:12:52;;;;;;;16.90;10.30;;;14.00;1.00;;;;;;5108192;28;20226;-89
2021/10/17 09:15:28;;;;;;;23.10;10.13;;;14.10;1.00;;;;;;5110868;28;20181;-80
2021/10/17 09:18:10;;;;;;;16.70;10.40;;;14.20;1.00;;;;;;5116506;28;20228;-81
2021/10/17 09:20:58;;;;;;;16.13;9.23;;;14.10;1.00;;;;;;5111190;28;20185;-82
2021/10/17 09:23:27;;;;;;;18.90;9.13;;;14.10;1.00;;;;;;5102324;28;20182;-81
2021/10/17 09:26:12;;;;;;;18.37;9.67;;;14.10;1.00;;;;;;5102896;28;20191;-82
2021/10/17 09:28:39;;;;;;;16.20;9.23;;;14.20;1.00;;;;;;5081483;28;20176;-86
2021/10/17 09:31:17;;;;;;;18.57;9.20;;;14.60;1.00;;;;;;5099886;28;20274;-85
2021/10/17 09:33:54;;;;;;;15.70;9.13;;;14.80;1.00;;;;;;5098629;28;20161;-93
2021/10/17 09:36:33;;;;;;;18.90;9.30;;;14.60;1.00;;;;;;5107106;28;20169;-92
2021/10/17 09:39:37;;;;;;;15.50;8.23;;;14.60;1.00;;;;;;5092112;28;20194;-92
2021/10/17 09:41:53;;;;;;;13.83;8.37;;;14.50;1.00;;;;;;5093248;28;20637;-92
2021/10/17 09:44:19;;;;;;;16.33;9.07;;;14.80;1.00;;;;;;5097009;28;20149;-91
2021/10/17 09:46:59;;;;;;;16.30;8.10;;;14.90;1.00;;;;;;5096206;28;20188;-83
2021/10/17 09:49:29;;;;;;;15.87;9.00;;;15.00;1.00;;;;;;5096883;28;20161;-83
2021/10/17 09:52:18;;;;;;;17.70;8.60;;;15.10;1.00;;;;;;5077854;28;20200;-90
2021/10/17 09:54:50;;;;;;;17.27;8.10;;;15.10;1.00;;;;;;5097786;28;20175;-84
2021/10/17 09:57:17;;;;;;;15.30;8.67;;;15.10;1.00;;;;;;5114718;28;20167;-93
2021/10/17 09:59:45;;;;;;;15.73;7.90;;;15.10;1.00;;;;;;5120205;28;20166;-91
2021/10/17 10:02:12;;;;;;;14.73;8.00;;;15.10;1.00;;;;;;5105290;28;20185;-91
2021/10/17 10:04:44;;;;;;;17.90;8.40;;;15.10;1.00;;;;;;5100956;28;20178;-92
2021/10/17 10:07:24;;;;;;;13.70;8.03;;;15.20;1.00;;;;;;5104780;28;20281;-84
2021/10/17 10:09:55;;;;;;;16.13;7.33;;;15.30;1.00;;;;;;5137990;28;20181;-90
2021/10/17 10:12:26;;;;;;;16.63;8.83;;;15.30;1.00;;;;;;5136260;28;20281;-88
2021/10/17 10:14:54;;;;;;;16.20;8.07;;;15.50;1.00;;;;;;5114670;28;20215;-83
2021/10/17 10:17:29;;;;;;;18.53;9.17;;;15.40;1.00;;;;;;5115349;28;20150;-82
2021/10/17 10:20:13;;;;;;;15.57;7.87;;;15.40;1.00;;;;;;5115911;28;20144;-92
2021/10/17 10:22:44;;;;;;;15.47;8.63;;;15.30;1.00;;;;;;5125472;28;20175;-81
2021/10/17 10:25:16;;;;;;;12.80;8.50;;;15.30;1.00;;;;;;5125486;28;20158;-80
2021/10/17 10:27:44;;;;;;;13.97;8.03;;;15.30;1.00;;;;;;5118332;28;20159;-78
2021/10/17 10:30:32;;;;;;;15.10;8.47;;;15.50;1.00;;;;;;5124020;28;20525;-77
2021/10/17 10:33:18;;;;;;;16.07;8.50;;;15.60;1.00;;;;;;5137052;28;20350;-79
2021/10/17 10:36:36;;;;;;;14.73;8.10;;;15.70;1.00;;;;;;5131120;28;20622;-79
2021/10/17 10:39:24;;;;;;;14.00;9.20;;;15.90;1.00;;;;;;5015749;28;20202;-83
2021/10/17 10:41:58;;;;;;;14.40;7.73;;;15.90;1.00;;;;;;5017827;28;20290;-85
2021/10/17 10:44:40;;;;;;;13.97;7.67;;;15.80;1.00;;;;;;5094373;28;20197;-87
2021/10/17 10:47:24;;;;;;;14.13;7.00;;;15.70;1.00;;;;;;5118644;28;20182;-87
2021/10/17 10:49:55;;;;;;;12.33;7.27;;;15.80;1.00;;;;;;5121057;28;20174;-86
2021/10/17 10:52:23;;;;;;;13.70;6.97;;;15.90;1.00;;;;;;5121059;28;20240;-89
2021/10/17 10:54:49;;;;;;;15.03;7.50;;;15.90;1.00;;;;;;5107929;28;20238;-85
2021/10/17 10:57:26;;;;;;;14.53;7.30;;;16.00;1.00;;;;;;5120167;28;20247;-88
2021/10/17 11:00:06;;;;;;;11.77;6.77;;;16.10;1.00;;;;;;5119974;28;20567;-92
2021/10/17 11:02:33;;;;;;;14.73;7.33;;;16.10;1.00;;;;;;5118109;28;20169;-87
2021/10/17 11:05:16;;;;;;;13.00;6.80;;;16.40;1.00;;;;;;5115227;28;20190;-86
2021/10/17 11:07:48;;;;;;;13.63;6.97;;;16.60;1.00;;;;;;5116295;28;20671;-87
2021/10/17 11:10:23;;;;;;;13.70;7.20;;;16.80;1.00;;;;;;5117657;28;20173;-90
2021/10/17 11:12:58;;;;;;;10.63;6.40;;;16.90;1.00;;;;;;5118174;28;20202;-88
2021/10/17 11:15:30;;;;;;;12.83;6.57;;;17.00;1.00;;;;;;5108117;28;20166;-85
2021/10/17 11:18:03;;;;;;;12.47;6.73;;;17.30;1.00;;;;;;5131762;28;20215;-85
2021/10/17 11:20:37;;;;;;;12.73;6.57;;;17.30;1.00;;;;;;5105866;28;20262;-84
2021/10/17 11:23:20;;;;;;;11.97;6.60;;;17.30;1.00;;;;;;5102635;28;20184;-87
2021/10/17 11:25:58;;;;;;;12.03;6.00;;;17.30;1.00;;;;;;5108516;28;20203;-83
2021/10/17 11:28:27;;;;;;;9.20;5.30;;;17.40;1.00;;;;;;5104020;28;20175;-89
2021/10/17 11:31:11;;;;;;;10.77;5.50;;;17.40;1.00;;;;;;5115215;28;20180;-83
2021/10/17 11:33:39;;;;;;;9.37;5.60;;;17.40;1.00;;;;;;5114695;28;20175;-81
2021/10/17 11:36:06;;;;;;;11.37;5.40;;;17.50;99.90;;;;;;5116506;28;20159;-89
2021/10/17 11:38:32;;;;;;;8.77;5.13;;;17.40;99.90;;;;;;5116939;28;20174;-84
2021/10/17 11:41:04;;;;;;;8.07;4.67;;;17.40;99.90;;;;;;5115881;28;20163;-81
2021/10/17 11:43:41;;;;;;;11.50;5.00;;;17.30;99.90;;;;;;5099412;28;20182;-86
2021/10/17 11:46:11;;;;;;;8.80;4.80;;;17.30;99.90;;;;;;5115454;28;20256;-87
2021/10/17 11:48:37;;;;;;;8.20;4.20;;;17.20;99.90;;;;;;5115866;28;20195;-88
2021/10/17 11:51:09;;;;;;;7.50;3.90;;;17.40;99.90;;;;;;5117922;28;20600;-86
2021/10/17 11:53:35;;;;;;;9.70;4.40;;;17.60;99.90;;;;;;5098814;28;20267;-89
2021/10/17 11:56:05;;;;;;;9.80;5.27;;;17.50;99.90;;;;;;5099049;28;20171;-85
2021/10/17 11:58:32;;;;;;;9.00;4.80;;;17.30;99.90;;;;;;5115791;28;20232;-88
2021/10/17 12:01:18;;;;;;;8.47;4.50;;;17.40;99.90;;;;;;5099132;28;20179;-88
2021/10/17 12:04:02;;;;;;;6.20;3.73;;;17.30;99.90;;;;;;5116120;28;20176;-89
2021/10/17 12:06:31;;;;;;;7.60;3.33;;;17.00;99.90;;;;;;5119023;28;20166;-88
2021/10/17 12:09:02;;;;;;;8.00;3.40;;;17.00;99.90;;;;;;5102561;28;20237;-87
2021/10/17 12:11:29;;;;;;;7.57;3.90;;;16.90;99.90;;;;;;5118087;28;20261;-89
2021/10/17 12:13:58;;;;;;;6.43;3.53;;;17.00;99.90;;;;;;5117777;28;20171;-89
2021/10/17 12:16:26;;;;;;;8.47;3.60;;;17.10;99.90;;;;;;5102459;28;20217;-89
2021/10/17 12:18:54;;;;;;;6.30;3.23;;;17.00;99.90;;;;;;5120117;28;20186;-88
2021/10/17 12:21:25;;;;;;;8.13;4.00;;;17.00;99.90;;;;;;5121193;28;20289;-89
2021/10/17 12:23:53;;;;;;;5.83;3.37;;;17.00;99.90;;;;;;5120050;28;20178;-90
2021/10/17 12:26:29;;;;;;;8.83;3.40;;;17.20;99.90;;;;;;5101421;28;20186;-87
2021/10/17 12:29:11;;;;;;;9.10;4.77;;;17.10;99.90;;;;;;5119165;28;20167;-90
2021/10/17 12:31:55;;;;;;;8.27;3.90;;;17.10;99.90;;;;;;5119641;28;20190;-89
2021/10/17 12:34:41;;;;;;;7.60;4.00;;;17.10;99.90;;;;;;5121039;28;20159;-89
2021/10/17 12:37:08;;;;;;;7.00;3.77;;;17.20;99.90;;;;;;5109810;28;20260;-87
2021/10/17 12:39:34;;;;;;;7.20;3.60;;;17.30;99.90;;;;;;5122674;28;20168;-89
2021/10/17 12:42:01;;;;;;;7.50;3.50;;;17.00;99.90;;;;;;5134053;28;20174;-87
2021/10/17 12:44:41;;;;;;;7.03;3.90;;;16.90;99.90;;;;;;5135349;28;20163;-88
2021/10/17 12:47:06;;;;;;;6.23;3.30;;;17.10;99.90;;;;;;5114604;28;20184;-89
2021/10/17 12:49:44;;;;;;;9.70;3.63;;;17.40;99.90;;;;;;5115349;28;20199;-86
2021/10/17 12:52:24;;;;;;;5.67;2.97;;;17.40;99.90;;;;;;5123784;28;20214;-85